Terminal Aerodrome Forecast
Issued by NWS

Home | Current Version | Previous Version | Text Only | Print | Product List | Glossary On
Versions: 1 2 3 4 5 6 7 8 9 10 11 12 13 14 15 16 17 18 19
000
FTUS43 KIWX 271720
TAFSBN
TAF
KSBN 271720Z 2718/2818 VRB04KT P6SM OVC015
     FM272300 01006KT 4SM -SHRA OVC015
     FM280400 36007KT P6SM OVC020
     FM280900 36007KT 3SM BR OVC008
     FM281500 02008KT P6SM OVC015=

USA.gov is the U.S. government's official web portal to all federal, state and local government web resources and services.